TFM - Tactical Decision Aid (Experimental) INFO Settings
ID: Runway Winds: CIG/VIS Threshold: METAR Board:

KCAE - Columbia Metro

Updated at: 0713 UTC 24 Jun 2018
Latest TAF at: 0521 UTC 24 Jun 2018

TAF Board

Time0656Z24/08Z24/09Z24/10Z24/11Z24/12Z24/13Z24/14Z24/15Z24/16Z24/17Z24/18Z24/19Z24/20Z
TypeOBSPRVLPRVLPRVLPRVLPRVLPRVLPRVLPRVLPRVLPRVLPRVLPRVLPRVL
VIS10>6>6>6>6>6>6>6>6>6>6>6>6>6
CIG----------------------------
CoverCLRSCTSCTSCTSCTSCTSCTSCTSCTSCTSCTSCTSCTSCT
FltCatVFRVFRVFRVFRVFRVFRVFRVFRVFRVFRVFRVFRVFRVFR
WX----------------------------
WDir270250250250250250250260260260260260260260
WSpd344444410101012121212
WGst--------------------18181818
TAF
KCAE 240521Z 2406/2506 25004KT P6SM SCT250
  FM241400 26010KT P6SM SCT050
  FM241700 26012G18KT P6SM SCT050
  FM250100 23004KT P6SM SCT050 BKN100


METAR
KCAE 240656Z 27003KT 10SM CLR 25/24 A2994 RMK AO2 SLP135 T02500239
KCAE 240556Z 25003KT 10SM CLR 26/24 A2994 RMK AO2 SLP134 T02560244 10300 20256 51009

TAF/METAR Board Legend

Potential Impact
  None Marginal Slight Moderate High
Visibility (sm) >5 3≤X≤5 2≤X<3 0.5≤X<2 <0.5
Ceiling (100 ft) >30 10≤X≤30 6≤X<10 2≤X<6 <2
Wind Speed (kt) <10 10≤X<20 20≤X<30 ≥30
Wind Gust (kt) <15 15≤X<25 25≤X<35 ≥35
Weather No Wx Reported VCTS -TS,-FZRA TS,FZRA +TS,+FZRA